createdAt,value
2023-03-18T00:00:40.166Z,1007.09
2023-03-18T00:01:40.133Z,1007.17
2023-03-18T00:02:40.319Z,1007.14
2023-03-18T00:03:40.190Z,1007.12
2023-03-18T00:04:40.100Z,1007.14
2023-03-18T00:05:40.103Z,1007.08
2023-03-18T00:06:40.102Z,1007.09
2023-03-18T00:07:40.061Z,1007.13
2023-03-18T00:08:40.057Z,1007.15
2023-03-18T00:09:40.044Z,1007.15
2023-03-18T00:10:40.055Z,1007.09
2023-03-18T00:11:40.023Z,1007.10
2023-03-18T00:12:40.012Z,1007.16
2023-03-18T00:13:39.994Z,1007.17
2023-03-18T00:14:40.004Z,1007.15
2023-03-18T00:15:39.991Z,1007.06
2023-03-18T00:16:39.987Z,1007.14
2023-03-18T00:17:39.959Z,1007.12
2023-03-18T00:18:39.944Z,1007.18
2023-03-18T00:19:39.956Z,1007.11
2023-03-18T00:20:39.920Z,1007.12
2023-03-18T00:21:39.909Z,1007.03
2023-03-18T00:22:39.923Z,1007.02
2023-03-18T00:23:39.902Z,1007.04
2023-03-18T00:24:39.904Z,1007.09
2023-03-18T00:25:39.886Z,1007.02
2023-03-18T00:26:39.861Z,1006.99
2023-03-18T00:27:39.872Z,1007.02
2023-03-18T00:28:39.845Z,1006.98
2023-03-18T00:29:39.828Z,1007.06
2023-03-18T00:30:39.842Z,1007.02
2023-03-18T00:31:39.909Z,1006.99
2023-03-18T00:32:39.817Z,1006.91
2023-03-18T00:33:39.788Z,1006.98
2023-03-18T00:34:39.772Z,1006.92
2023-03-18T00:35:39.788Z,1006.86
2023-03-18T00:36:39.801Z,1006.86
2023-03-18T00:37:39.733Z,1006.86
2023-03-18T00:38:39.753Z,1006.88
2023-03-18T00:39:39.716Z,1006.86
2023-03-18T00:40:39.744Z,1006.86
2023-03-18T00:41:39.713Z,1006.91
2023-03-18T00:42:39.680Z,1006.92
2023-03-18T00:43:39.672Z,1007.02
2023-03-18T00:44:39.690Z,1006.99
2023-03-18T00:45:39.652Z,1007.01
2023-03-18T00:46:39.680Z,1007.03
2023-03-18T00:47:39.630Z,1006.99
2023-03-18T00:48:39.623Z,1007.05
2023-03-18T00:49:39.626Z,1006.98
2023-03-18T00:50:39.596Z,1006.97
2023-03-18T00:51:39.587Z,1006.98
2023-03-18T00:52:39.596Z,1006.94
2023-03-18T00:53:39.562Z,1006.93
2023-03-18T00:54:39.603Z,1006.86
2023-03-18T00:55:39.551Z,1006.86
2023-03-18T00:56:39.534Z,1006.89
2023-03-18T00:57:39.515Z,1006.92
2023-03-18T00:58:39.513Z,1006.93
2023-03-18T00:59:39.532Z,1006.87
2023-03-18T01:00:39.504Z,1006.89
2023-03-18T01:01:39.535Z,1006.93
2023-03-18T01:02:39.470Z,1006.93
2023-03-18T01:03:39.472Z,1006.97
2023-03-18T01:04:39.443Z,1006.89
2023-03-18T01:05:39.428Z,1006.81
2023-03-18T01:06:39.424Z,1006.96
2023-03-18T01:07:39.414Z,1006.86
2023-03-18T01:08:39.428Z,1006.99
2023-03-18T01:09:39.418Z,1006.89
2023-03-18T01:10:39.403Z,1006.88
2023-03-18T01:11:39.365Z,1006.93
2023-03-18T01:12:39.689Z,1006.89
2023-03-18T01:13:39.344Z,1006.86
2023-03-18T01:14:39.360Z,1006.87
2023-03-18T01:15:39.321Z,1006.93
2023-03-18T01:16:39.350Z,1006.88
2023-03-18T01:17:39.300Z,1006.91
2023-03-18T01:18:39.290Z,1006.94
2023-03-18T01:19:39.299Z,1006.93
2023-03-18T01:20:39.269Z,1006.85
2023-03-18T01:21:39.257Z,1006.88
2023-03-18T01:22:39.252Z,1006.84
2023-03-18T01:23:39.255Z,1006.79
2023-03-18T01:24:39.249Z,1006.74
2023-03-18T01:25:39.214Z,1006.78
2023-03-18T01:26:39.222Z,1006.76
2023-03-18T01:27:39.187Z,1006.75
2023-03-18T01:28:39.188Z,1006.78
2023-03-18T01:29:39.204Z,1006.81
2023-03-18T01:30:39.174Z,1006.78
2023-03-18T01:31:39.186Z,1006.81
2023-03-18T01:32:39.188Z,1006.82
2023-03-18T01:33:39.122Z,1006.70
2023-03-18T01:34:39.122Z,1006.74
2023-03-18T01:35:39.148Z,1006.80
2023-03-18T01:36:39.114Z,1006.77
2023-03-18T01:37:39.075Z,1006.83
2023-03-18T01:38:39.094Z,1006.75
2023-03-18T01:39:39.056Z,1006.81
2023-03-18T01:40:39.072Z,1006.77
2023-03-18T01:41:39.035Z,1006.71
2023-03-18T01:42:39.063Z,1006.77
2023-03-18T01:43:39.044Z,1006.73
2023-03-18T01:44:39.015Z,1006.76
2023-03-18T01:45:39.022Z,1006.79
2023-03-18T01:46:38.988Z,1006.78
2023-03-18T01:47:38.964Z,1006.73
2023-03-18T01:48:38.974Z,1006.80
2023-03-18T01:49:38.939Z,1006.79
2023-03-18T01:50:38.948Z,1006.74
2023-03-18T01:51:38.927Z,1006.75
2023-03-18T01:52:38.922Z,1006.69
2023-03-18T01:53:38.924Z,1006.73
2023-03-18T01:54:38.903Z,1006.74
2023-03-18T01:55:38.880Z,1006.74
2023-03-18T01:56:38.871Z,1006.74
2023-03-18T01:57:38.860Z,1006.76
2023-03-18T01:58:38.889Z,1006.73
2023-03-18T01:59:38.830Z,1006.70
2023-03-18T02:00:38.826Z,1006.71
2023-03-18T02:01:38.811Z,1006.75
2023-03-18T02:02:38.804Z,1006.75
2023-03-18T02:03:38.844Z,1006.69
2023-03-18T02:04:38.780Z,1006.64
2023-03-18T02:05:38.767Z,1006.72
2023-03-18T02:06:38.771Z,1006.75
2023-03-18T02:07:38.745Z,1006.79
2023-03-18T02:08:38.749Z,1006.85
2023-03-18T02:09:38.761Z,1006.75
2023-03-18T02:10:38.735Z,1006.76
2023-03-18T02:11:38.723Z,1006.76
2023-03-18T02:12:38.704Z,1006.82
2023-03-18T02:13:38.682Z,1006.84
2023-03-18T02:14:38.722Z,1006.87
2023-03-18T02:15:38.666Z,1006.84
2023-03-18T02:16:38.761Z,1006.79
2023-03-18T02:17:38.649Z,1006.85
2023-03-18T02:18:38.632Z,1006.83
2023-03-18T02:19:38.644Z,1006.79
2023-03-18T02:20:38.625Z,1006.82
2023-03-18T02:21:38.640Z,1006.84
2023-03-18T02:22:38.589Z,1006.74
2023-03-18T02:23:38.571Z,1006.80
2023-03-18T02:24:38.594Z,1006.77
2023-03-18T02:25:38.549Z,1006.72
2023-03-18T02:26:38.548Z,1006.72
2023-03-18T02:27:38.528Z,1006.73
2023-03-18T02:28:38.541Z,1006.78
2023-03-18T02:29:38.514Z,1006.79
2023-03-18T02:30:38.590Z,1006.79
2023-03-18T02:31:38.483Z,1006.72
2023-03-18T02:32:38.514Z,1006.74
2023-03-18T02:33:38.493Z,1006.66
2023-03-18T02:34:38.457Z,1006.72
2023-03-18T02:35:38.473Z,1006.68
2023-03-18T02:36:38.430Z,1006.66
2023-03-18T02:37:38.451Z,1006.66
2023-03-18T02:38:38.411Z,1006.72
2023-03-18T02:39:38.416Z,1006.68
2023-03-18T02:40:38.423Z,1006.76
2023-03-18T02:41:38.393Z,1006.72
2023-03-18T02:42:38.367Z,1006.74
2023-03-18T02:43:38.357Z,1006.76
2023-03-18T02:44:38.346Z,1006.73
2023-03-18T02:45:38.357Z,1006.70
2023-03-18T02:46:38.357Z,1006.69
2023-03-18T02:47:38.311Z,1006.69
2023-03-18T02:48:38.305Z,1006.68
2023-03-18T02:49:38.302Z,1006.59
2023-03-18T02:50:38.589Z,1006.61
2023-03-18T02:51:38.268Z,1006.65
2023-03-18T02:52:38.278Z,1006.65
2023-03-18T02:53:38.260Z,1006.63
2023-03-18T02:54:38.258Z,1006.69
2023-03-18T02:55:38.234Z,1006.70
2023-03-18T02:56:38.219Z,1006.68
2023-03-18T02:57:38.222Z,1006.63
2023-03-18T02:58:38.199Z,1006.61
2023-03-18T02:59:38.210Z,1006.61
2023-03-18T03:00:38.175Z,1006.65
2023-03-18T03:01:38.249Z,1006.60
2023-03-18T03:02:38.290Z,1006.57
2023-03-18T03:03:38.221Z,1006.55
2023-03-18T03:04:38.162Z,1006.48
2023-03-18T03:05:38.150Z,1006.47
2023-03-18T03:06:38.110Z,1006.50
2023-03-18T03:07:38.196Z,1006.54
2023-03-18T03:08:38.099Z,1006.55
2023-03-18T03:09:38.099Z,1006.55
2023-03-18T03:10:38.069Z,1006.59
2023-03-18T03:11:38.066Z,1006.56
2023-03-18T03:12:38.045Z,1006.59
2023-03-18T03:13:38.058Z,1006.66
2023-03-18T03:14:38.031Z,1006.66
2023-03-18T03:15:38.056Z,1006.69
2023-03-18T03:16:38.008Z,1006.67
2023-03-18T03:17:38.097Z,1006.72
2023-03-18T03:18:38.049Z,1006.74
2023-03-18T03:19:37.967Z,1006.73
2023-03-18T03:20:37.973Z,1006.77
2023-03-18T03:21:37.949Z,1006.78
2023-03-18T03:22:37.949Z,1006.77
2023-03-18T03:23:37.933Z,1006.77
2023-03-18T03:24:37.957Z,1006.81
2023-03-18T03:25:37.904Z,1006.75
2023-03-18T03:26:37.938Z,1006.74
2023-03-18T03:27:37.993Z,1006.70
2023-03-18T03:28:37.874Z,1006.71
2023-03-18T03:29:37.859Z,1006.71
2023-03-18T03:30:37.855Z,1006.75
2023-03-18T03:31:37.838Z,1006.85
2023-03-18T03:32:37.883Z,1006.80
2023-03-18T03:33:37.820Z,1006.75
2023-03-18T03:34:37.860Z,1006.84
2023-03-18T03:35:37.864Z,1006.84
2023-03-18T03:36:37.782Z,1006.75
2023-03-18T03:37:37.798Z,1006.83
2023-03-18T03:38:37.764Z,1006.82
2023-03-18T03:39:37.750Z,1006.84
2023-03-18T03:40:37.741Z,1006.73
2023-03-18T03:41:37.729Z,1006.73
2023-03-18T03:42:37.747Z,1006.76
2023-03-18T03:43:37.710Z,1006.76
2023-03-18T03:44:37.698Z,1006.76
2023-03-18T03:45:37.686Z,1006.75
2023-03-18T03:46:37.788Z,1006.77
2023-03-18T03:47:37.691Z,1006.78
2023-03-18T03:48:37.656Z,1006.76
2023-03-18T03:49:37.644Z,1006.83
2023-03-18T03:50:37.676Z,1006.82
2023-03-18T03:51:37.681Z,1006.77
2023-03-18T03:52:37.670Z,1006.72
2023-03-18T03:53:37.611Z,1006.75
2023-03-18T03:54:37.680Z,1006.71
2023-03-18T03:55:37.713Z,1006.76
2023-03-18T03:56:37.569Z,1006.80
2023-03-18T03:57:37.556Z,1006.76
2023-03-18T03:58:37.545Z,1006.72
2023-03-18T03:59:37.538Z,1006.72
2023-03-18T04:00:37.543Z,1006.77
2023-03-18T04:01:37.519Z,1006.77
2023-03-18T04:02:37.580Z,1006.82
2023-03-18T04:03:37.522Z,1006.83
2023-03-18T04:04:37.491Z,1006.73
2023-03-18T04:05:37.506Z,1006.77
2023-03-18T04:06:37.488Z,1006.83
2023-03-18T04:07:37.454Z,1006.76
2023-03-18T04:08:37.440Z,1006.83
2023-03-18T04:09:37.423Z,1006.77
2023-03-18T04:10:37.445Z,1006.85
2023-03-18T04:11:37.397Z,1006.80
2023-03-18T04:12:37.398Z,1006.76
2023-03-18T04:13:37.383Z,1006.72
2023-03-18T04:14:37.369Z,1006.79
2023-03-18T04:15:37.385Z,1006.83
2023-03-18T04:16:37.348Z,1006.87
2023-03-18T04:17:37.358Z,1006.82
2023-03-18T04:18:37.329Z,1006.84
2023-03-18T04:19:37.345Z,1006.88
2023-03-18T04:20:37.305Z,1006.84
2023-03-18T04:21:37.309Z,1006.86
2023-03-18T04:22:37.309Z,1006.93
2023-03-18T04:23:37.274Z,1006.97
2023-03-18T04:24:37.335Z,1006.96
2023-03-18T04:25:37.257Z,1006.90
2023-03-18T04:26:37.251Z,1006.94
2023-03-18T04:27:37.231Z,1006.90
2023-03-18T04:28:37.222Z,1006.91
2023-03-18T04:29:37.233Z,1006.94
2023-03-18T04:30:37.200Z,1006.87
2023-03-18T04:31:37.301Z,1006.90
2023-03-18T04:32:37.251Z,1006.84
2023-03-18T04:33:37.168Z,1006.94
2023-03-18T04:34:37.173Z,1006.96
2023-03-18T04:35:37.185Z,1006.93
2023-03-18T04:36:37.131Z,1006.94
2023-03-18T04:37:37.499Z,1007.04
2023-03-18T04:38:37.158Z,1007.02
2023-03-18T04:39:37.102Z,1006.99
2023-03-18T04:40:37.085Z,1006.94
2023-03-18T04:41:37.080Z,1006.97
2023-03-18T04:42:37.064Z,1006.96
2023-03-18T04:43:37.085Z,1006.92
2023-03-18T04:44:37.044Z,1007.00
2023-03-18T04:45:37.032Z,1007.04
2023-03-18T04:46:37.045Z,1007.11
2023-03-18T04:47:37.014Z,1007.07
2023-03-18T04:48:37.029Z,1007.03
2023-03-18T04:49:36.992Z,1007.03
2023-03-18T04:50:37.014Z,1007.07
2023-03-18T04:51:36.973Z,1007.07
2023-03-18T04:52:36.956Z,1007.04
2023-03-18T04:53:36.946Z,1007.06
2023-03-18T04:54:36.973Z,1007.17
2023-03-18T04:55:36.965Z,1007.08
2023-03-18T04:56:36.920Z,1007.13
2023-03-18T04:57:36.904Z,1007.16
2023-03-18T04:58:36.892Z,1007.15
2023-03-18T04:59:36.906Z,1007.16
2023-03-18T05:00:36.951Z,1007.15
2023-03-18T05:01:36.860Z,1007.16
2023-03-18T05:02:36.849Z,1007.15
2023-03-18T05:03:36.936Z,1007.10
2023-03-18T05:04:36.832Z,1007.02
2023-03-18T05:05:38.828Z,1007.10
2023-03-18T05:06:36.844Z,1007.13
2023-03-18T05:07:36.798Z,1007.14
2023-03-18T05:08:36.785Z,1007.13
2023-03-18T05:09:36.775Z,1007.13
2023-03-18T05:10:36.786Z,1007.08
2023-03-18T05:11:36.780Z,1007.10
2023-03-18T05:12:36.745Z,1007.06
2023-03-18T05:13:36.733Z,1007.01
2023-03-18T05:14:36.720Z,1007.08
2023-03-18T05:15:36.736Z,1007.05
2023-03-18T05:16:36.784Z,1006.99
2023-03-18T05:17:36.695Z,1007.08
2023-03-18T05:18:36.682Z,1007.09
2023-03-18T05:19:36.671Z,1007.09
2023-03-18T05:20:36.678Z,1007.10
2023-03-18T05:21:36.674Z,1007.05
2023-03-18T05:22:36.634Z,1007.06
2023-03-18T05:23:36.628Z,1007.07
2023-03-18T05:24:36.613Z,1007.17
2023-03-18T05:25:36.603Z,1007.07
2023-03-18T05:26:36.747Z,1007.07
2023-03-18T05:27:36.584Z,1007.06
2023-03-18T05:28:36.567Z,1007.08
2023-03-18T05:29:36.569Z,1007.05
2023-03-18T05:30:36.544Z,1006.99
2023-03-18T05:31:36.591Z,1007.11
2023-03-18T05:32:36.578Z,1007.09
2023-03-18T05:33:36.540Z,1007.14
2023-03-18T05:34:36.527Z,1007.13
2023-03-18T05:35:36.525Z,1007.10
2023-03-18T05:36:36.542Z,1007.10
2023-03-18T05:37:36.472Z,1007.13
2023-03-18T05:38:36.460Z,1007.06
2023-03-18T05:39:36.457Z,1007.13
2023-03-18T05:40:36.464Z,1007.13
2023-03-18T05:41:36.468Z,1007.12
2023-03-18T05:42:45.927Z,1007.21
2023-03-18T05:43:37.405Z,1007.10
2023-03-18T05:44:36.395Z,1007.13
2023-03-18T05:45:39.519Z,1007.12
2023-03-18T05:46:36.402Z,1007.16
2023-03-18T05:47:36.362Z,1007.09
2023-03-18T05:48:36.355Z,1007.10
2023-03-18T05:49:36.348Z,1007.11
2023-03-18T05:50:36.333Z,1007.16
2023-03-18T05:51:36.348Z,1007.22
2023-03-18T05:52:36.316Z,1007.19
2023-03-18T05:53:36.322Z,1007.23
2023-03-18T05:54:36.345Z,1007.22
2023-03-18T05:55:36.282Z,1007.21
2023-03-18T05:56:36.289Z,1007.20
2023-03-18T05:57:36.262Z,1007.28
2023-03-18T05:58:36.266Z,1007.22
2023-03-18T05:59:36.236Z,1007.21
2023-03-18T06:00:36.224Z,1007.19
2023-03-18T06:01:36.232Z,1007.16
2023-03-18T06:02:36.297Z,1007.25
2023-03-18T06:03:36.202Z,1007.22
2023-03-18T06:04:36.181Z,1007.24
2023-03-18T06:05:36.177Z,1007.23
2023-03-18T06:06:36.181Z,1007.22
2023-03-18T06:07:36.165Z,1007.26
2023-03-18T06:08:36.162Z,1007.25
2023-03-18T06:09:36.130Z,1007.20
2023-03-18T06:10:36.119Z,1007.27
2023-03-18T06:11:36.105Z,1007.33
2023-03-18T06:12:36.094Z,1007.26
2023-03-18T06:13:36.110Z,1007.24
2023-03-18T06:14:36.127Z,1007.19
2023-03-18T06:15:36.076Z,1007.16
2023-03-18T06:16:36.156Z,1007.15
2023-03-18T06:17:36.049Z,1007.21
2023-03-18T06:18:36.053Z,1007.16
2023-03-18T06:19:36.041Z,1007.16
2023-03-18T06:20:36.037Z,1007.18
2023-03-18T06:21:36.006Z,1007.23
2023-03-18T06:22:35.987Z,1007.20
2023-03-18T06:23:35.982Z,1007.22
2023-03-18T06:24:36.003Z,1007.24
2023-03-18T06:25:35.960Z,1007.22
2023-03-18T06:26:35.954Z,1007.15
2023-03-18T06:27:35.942Z,1007.21
2023-03-18T06:28:36.008Z,1007.23
2023-03-18T06:29:35.925Z,1007.29
2023-03-18T06:30:35.927Z,1007.27
2023-03-18T06:31:35.894Z,1007.31
2023-03-18T06:32:35.948Z,1007.32
2023-03-18T06:33:35.901Z,1007.34
2023-03-18T06:34:35.857Z,1007.38
2023-03-18T06:35:35.981Z,1007.45
2023-03-18T06:36:35.853Z,1007.42
2023-03-18T06:37:35.859Z,1007.45
2023-03-18T06:38:35.815Z,1007.47
2023-03-18T06:39:35.812Z,1007.46
2023-03-18T06:40:35.798Z,1007.41
2023-03-18T06:41:35.796Z,1007.46
2023-03-18T06:42:35.806Z,1007.46
2023-03-18T06:43:35.774Z,1007.48
2023-03-18T06:44:35.762Z,1007.42
2023-03-18T06:45:35.744Z,1007.45
2023-03-18T06:46:35.846Z,1007.42
2023-03-18T06:47:35.742Z,1007.40
2023-03-18T06:48:35.709Z,1007.39
2023-03-18T06:49:35.734Z,1007.43
2023-03-18T06:50:35.687Z,1007.39
2023-03-18T06:51:35.679Z,1007.42
2023-03-18T06:52:35.665Z,1007.45
2023-03-18T06:53:35.660Z,1007.48
2023-03-18T06:54:35.671Z,1007.48
2023-03-18T06:55:35.636Z,1007.47
2023-03-18T06:56:35.625Z,1007.41
2023-03-18T06:57:35.632Z,1007.47
2023-03-18T06:58:35.598Z,1007.43
2023-03-18T06:59:35.629Z,1007.52
2023-03-18T07:00:35.628Z,1007.44
2023-03-18T07:01:35.632Z,1007.47
2023-03-18T07:02:38.885Z,1007.59
2023-03-18T07:03:35.551Z,1007.52
2023-03-18T07:04:35.716Z,1007.58
2023-03-18T07:05:35.529Z,1007.60
2023-03-18T07:06:35.511Z,1007.59
2023-03-18T07:07:35.505Z,1007.62
2023-03-18T07:08:35.492Z,1007.55
2023-03-18T07:09:35.482Z,1007.64
2023-03-18T07:10:35.503Z,1007.67
2023-03-18T07:11:35.459Z,1007.68
2023-03-18T07:12:35.442Z,1007.68
2023-03-18T07:13:35.462Z,1007.74
2023-03-18T07:14:35.461Z,1007.72
2023-03-18T07:15:35.842Z,1007.80
2023-03-18T07:16:35.407Z,1007.83
2023-03-18T07:17:35.402Z,1007.77
2023-03-18T07:18:35.399Z,1007.77
2023-03-18T07:19:35.396Z,1007.77
2023-03-18T07:20:35.359Z,1007.77
2023-03-18T07:21:35.378Z,1007.79
2023-03-18T07:22:35.340Z,1007.80
2023-03-18T07:23:35.332Z,1007.76
2023-03-18T07:24:35.331Z,1007.88
2023-03-18T07:25:35.332Z,1007.87
2023-03-18T07:26:35.313Z,1007.85
2023-03-18T07:27:35.286Z,1007.86
2023-03-18T07:28:35.276Z,1007.85
2023-03-18T07:29:35.272Z,1007.87
2023-03-18T07:30:35.297Z,1007.75
2023-03-18T07:31:35.403Z,1007.76
2023-03-18T07:32:35.255Z,1007.71
2023-03-18T07:33:35.289Z,1007.73
2023-03-18T07:34:35.256Z,1007.73
2023-03-18T07:35:35.851Z,1007.79
2023-03-18T07:36:35.184Z,1007.76
2023-03-18T07:37:35.179Z,1007.84
2023-03-18T07:38:35.201Z,1007.83
2023-03-18T07:39:35.153Z,1007.84
2023-03-18T07:40:35.141Z,1007.84
2023-03-18T07:41:37.706Z,1007.93
2023-03-18T07:42:35.116Z,1007.88
2023-03-18T07:43:35.144Z,1007.86
2023-03-18T07:44:35.108Z,1007.85
2023-03-18T07:45:35.098Z,1007.93
2023-03-18T07:46:35.129Z,1007.98
2023-03-18T07:47:35.139Z,1007.95
2023-03-18T07:48:35.075Z,1007.94
2023-03-18T07:49:35.045Z,1008.00
2023-03-18T07:50:35.088Z,1008.05
2023-03-18T07:51:35.027Z,1008.06
2023-03-18T07:52:35.015Z,1007.98
2023-03-18T07:53:35.032Z,1008.01
2023-03-18T07:54:35.001Z,1008.07
2023-03-18T07:55:35.078Z,1008.03
2023-03-18T07:56:34.965Z,1008.01
2023-03-18T07:57:34.960Z,1008.01
2023-03-18T07:58:34.975Z,1007.97
2023-03-18T07:59:34.942Z,1008.05
2023-03-18T08:00:34.940Z,1008.09
2023-03-18T08:01:34.917Z,1008.10
2023-03-18T08:02:34.934Z,1008.10
2023-03-18T08:03:34.991Z,1008.18
2023-03-18T08:04:34.976Z,1008.16
2023-03-18T08:05:35.119Z,1008.20
2023-03-18T08:06:34.881Z,1008.21
2023-03-18T08:07:34.861Z,1008.17
2023-03-18T08:08:34.976Z,1008.18
2023-03-18T08:09:34.847Z,1008.28
2023-03-18T08:10:34.820Z,1008.26
2023-03-18T08:11:34.809Z,1008.26
2023-03-18T08:12:49.377Z,1008.30
2023-03-18T08:13:35.813Z,1008.26
2023-03-18T08:14:34.774Z,1008.23
2023-03-18T08:15:35.324Z,1008.23
2023-03-18T08:16:34.790Z,1008.22
2023-03-18T08:17:34.739Z,1008.19
2023-03-18T08:18:34.752Z,1008.19
2023-03-18T08:19:34.724Z,1008.17
2023-03-18T08:20:34.704Z,1008.19
2023-03-18T08:21:34.701Z,1008.19
2023-03-18T08:22:34.704Z,1008.15
2023-03-18T08:23:34.697Z,1008.21
2023-03-18T08:24:34.656Z,1008.18
2023-03-18T08:25:35.149Z,1008.14
2023-03-18T08:26:34.651Z,1008.21
2023-03-18T08:27:34.640Z,1008.22
2023-03-18T08:28:34.622Z,1008.22
2023-03-18T08:29:34.650Z,1008.24
2023-03-18T08:30:34.623Z,1008.34
2023-03-18T08:31:34.644Z,1008.37
2023-03-18T08:32:34.619Z,1008.47
2023-03-18T08:33:34.568Z,1008.38
2023-03-18T08:34:34.573Z,1008.38
2023-03-18T08:35:34.584Z,1008.42
2023-03-18T08:36:34.535Z,1008.35
2023-03-18T08:37:34.524Z,1008.34
2023-03-18T08:38:34.534Z,1008.29
2023-03-18T08:39:34.502Z,1008.36
2023-03-18T08:40:34.534Z,1008.36
2023-03-18T08:41:34.480Z,1008.32
2023-03-18T08:42:34.475Z,1008.39
2023-03-18T08:43:34.460Z,1008.41
2023-03-18T08:44:34.457Z,1008.44
2023-03-18T08:45:34.935Z,1008.41
2023-03-18T08:46:34.456Z,1008.41
2023-03-18T08:47:34.444Z,1008.32
2023-03-18T08:48:34.410Z,1008.39
2023-03-18T08:49:34.397Z,1008.36
2023-03-18T08:50:34.441Z,1008.41
2023-03-18T08:51:34.383Z,1008.36
2023-03-18T08:52:34.366Z,1008.42
2023-03-18T08:53:34.356Z,1008.47
2023-03-18T08:54:34.371Z,1008.49
2023-03-18T08:55:34.977Z,1008.46
2023-03-18T08:56:34.335Z,1008.50
2023-03-18T08:57:34.313Z,1008.46
2023-03-18T08:58:34.302Z,1008.37
2023-03-18T08:59:34.283Z,1008.36
2023-03-18T09:00:34.294Z,1008.36
2023-03-18T09:01:34.316Z,1008.37
2023-03-18T09:02:34.256Z,1008.32
2023-03-18T09:03:34.259Z,1008.35
2023-03-18T09:04:34.247Z,1008.33
2023-03-18T09:05:34.688Z,1008.36
2023-03-18T09:06:34.213Z,1008.42
2023-03-18T09:07:34.204Z,1008.44
2023-03-18T09:08:34.225Z,1008.43
2023-03-18T09:09:43.435Z,1008.50
2023-03-18T09:10:35.231Z,1008.54
2023-03-18T09:11:34.159Z,1008.55
2023-03-18T09:12:34.154Z,1008.50
2023-03-18T09:13:34.149Z,1008.56
2023-03-18T09:14:34.136Z,1008.56
2023-03-18T09:15:34.771Z,1008.56
2023-03-18T09:16:34.155Z,1008.55
2023-03-18T09:17:51.028Z,1008.63
2023-03-18T09:18:35.085Z,1008.54
2023-03-18T09:19:34.074Z,1008.49
2023-03-18T09:20:34.082Z,1008.55
2023-03-18T09:21:34.049Z,1008.46
2023-03-18T09:22:34.036Z,1008.49
2023-03-18T09:23:34.035Z,1008.49
2023-03-18T09:24:34.043Z,1008.55
2023-03-18T09:25:34.585Z,1008.53
2023-03-18T09:26:34.023Z,1008.48
2023-03-18T09:27:33.984Z,1008.47
2023-03-18T09:28:33.996Z,1008.48
2023-03-18T09:29:33.962Z,1008.49
2023-03-18T09:30:34.090Z,1008.49
2023-03-18T09:31:33.956Z,1008.54
2023-03-18T09:32:33.985Z,1008.55
2023-03-18T09:33:33.913Z,1008.57
2023-03-18T09:34:33.904Z,1008.59
2023-03-18T09:35:34.358Z,1008.61
2023-03-18T09:36:33.908Z,1008.61
2023-03-18T09:37:33.865Z,1008.60
2023-03-18T09:38:33.857Z,1008.65
2023-03-18T09:39:33.846Z,1008.65
2023-03-18T09:40:34.818Z,1008.68
2023-03-18T09:41:33.859Z,1008.65
2023-03-18T09:42:33.837Z,1008.68
2023-03-18T09:43:33.802Z,1008.74
2023-03-18T09:44:33.797Z,1008.70
2023-03-18T09:45:34.276Z,1008.69
2023-03-18T09:46:33.886Z,1008.75
2023-03-18T09:47:33.763Z,1008.71
2023-03-18T09:48:33.754Z,1008.76
2023-03-18T09:49:33.737Z,1008.68
2023-03-18T09:50:33.778Z,1008.69
2023-03-18T09:51:33.719Z,1008.73
2023-03-18T09:52:33.709Z,1008.73
2023-03-18T09:53:33.702Z,1008.70
2023-03-18T09:54:33.684Z,1008.73
2023-03-18T09:55:34.176Z,1008.76
2023-03-18T09:56:33.701Z,1008.71
2023-03-18T09:57:33.654Z,1008.73
2023-03-18T09:58:33.669Z,1008.68
2023-03-18T09:59:33.638Z,1008.68
2023-03-18T10:00:33.668Z,1008.67
2023-03-18T10:01:33.649Z,1008.69
2023-03-18T10:02:33.605Z,1008.69
2023-03-18T10:03:33.627Z,1008.76
2023-03-18T10:04:33.580Z,1008.75
2023-03-18T10:05:34.127Z,1008.73
2023-03-18T10:06:33.584Z,1008.70
2023-03-18T10:07:33.550Z,1008.74
2023-03-18T10:08:35.211Z,1008.69
2023-03-18T10:09:33.526Z,1008.68
2023-03-18T10:10:33.637Z,1008.68
2023-03-18T10:11:33.526Z,1008.74
2023-03-18T10:12:33.489Z,1008.72
2023-03-18T10:13:33.482Z,1008.79
2023-03-18T10:14:35.838Z,1008.74
2023-03-18T10:15:33.716Z,1008.65
2023-03-18T10:16:33.463Z,1008.73
2023-03-18T10:17:33.436Z,1008.65
2023-03-18T10:18:33.435Z,1008.68
2023-03-18T10:19:33.415Z,1008.68
2023-03-18T10:20:33.427Z,1008.70
2023-03-18T10:21:33.396Z,1008.69
2023-03-18T10:22:33.407Z,1008.66
2023-03-18T10:23:33.372Z,1008.72
2023-03-18T10:24:33.362Z,1008.71
2023-03-18T10:25:33.671Z,1008.65
2023-03-18T10:26:33.438Z,1008.66
2023-03-18T10:27:33.348Z,1008.69
2023-03-18T10:28:33.327Z,1008.63
2023-03-18T10:29:33.371Z,1008.61
2023-03-18T10:30:33.344Z,1008.66
2023-03-18T10:31:33.367Z,1008.66
2023-03-18T10:32:48.784Z,1008.68
2023-03-18T10:33:34.299Z,1008.69
2023-03-18T10:34:33.264Z,1008.63
2023-03-18T10:35:33.697Z,1008.61
2023-03-18T10:36:33.254Z,1008.63
2023-03-18T10:37:33.223Z,1008.66
2023-03-18T10:38:33.220Z,1008.68
2023-03-18T10:39:33.198Z,1008.64
2023-03-18T10:40:33.230Z,1008.65
2023-03-18T10:41:33.182Z,1008.61
2023-03-18T10:42:33.176Z,1008.66
2023-03-18T10:43:33.155Z,1008.72
2023-03-18T10:44:33.147Z,1008.70
2023-03-18T10:45:33.536Z,1008.69
2023-03-18T10:46:33.265Z,1008.66
2023-03-18T10:47:33.207Z,1008.63
2023-03-18T10:48:33.121Z,1008.68
2023-03-18T10:49:33.097Z,1008.72
2023-03-18T10:50:33.587Z,1008.65
2023-03-18T10:51:33.068Z,1008.70
2023-03-18T10:52:33.063Z,1008.70
2023-03-18T10:53:33.050Z,1008.69
2023-03-18T10:54:33.047Z,1008.66
2023-03-18T10:55:33.047Z,1008.73
2023-03-18T10:56:33.017Z,1008.71
2023-03-18T10:57:33.000Z,1008.74
2023-03-18T10:58:32.995Z,1008.76
2023-03-18T10:59:32.989Z,1008.72
2023-03-18T11:00:33.429Z,1008.74
2023-03-18T11:01:33.019Z,1008.78
2023-03-18T11:02:33.110Z,1008.79
2023-03-18T11:03:32.942Z,1008.79
2023-03-18T11:04:32.945Z,1008.72
2023-03-18T11:05:33.240Z,1008.67
2023-03-18T11:06:32.926Z,1008.70
2023-03-18T11:07:32.900Z,1008.65
2023-03-18T11:08:32.891Z,1008.64
2023-03-18T11:09:32.882Z,1008.64
2023-03-18T11:10:33.350Z,1008.76
2023-03-18T11:11:32.879Z,1008.64
2023-03-18T11:12:32.848Z,1008.61
2023-03-18T11:13:32.847Z,1008.62
2023-03-18T11:14:32.827Z,1008.69
2023-03-18T11:15:32.806Z,1008.65
2023-03-18T11:16:33.006Z,1008.66
2023-03-18T11:17:32.792Z,1008.63
2023-03-18T11:18:32.835Z,1008.65
2023-03-18T11:19:32.790Z,1008.58
2023-03-18T11:20:33.057Z,1008.59
2023-03-18T11:21:32.744Z,1008.64
2023-03-18T11:22:32.734Z,1008.67
2023-03-18T11:23:32.724Z,1008.64
2023-03-18T11:24:32.735Z,1008.58
2023-03-18T11:25:32.702Z,1008.67
2023-03-18T11:26:32.702Z,1008.67
2023-03-18T11:27:32.678Z,1008.69
2023-03-18T11:28:32.669Z,1008.66
2023-03-18T11:29:32.682Z,1008.65
2023-03-18T11:30:35.005Z,1008.65
2023-03-18T11:31:32.733Z,1008.58
2023-03-18T11:32:32.735Z,1008.62
2023-03-18T11:33:32.612Z,1008.66
2023-03-18T11:34:32.651Z,1008.62
2023-03-18T11:35:32.641Z,1008.67
2023-03-18T11:36:32.590Z,1008.65
2023-03-18T11:37:32.604Z,1008.70
2023-03-18T11:38:32.566Z,1008.60
2023-03-18T11:39:32.550Z,1008.60
2023-03-18T11:40:32.831Z,1008.57
2023-03-18T11:41:32.524Z,1008.63
2023-03-18T11:42:32.525Z,1008.58
2023-03-18T11:43:32.509Z,1008.58
2023-03-18T11:44:32.532Z,1008.62
2023-03-18T11:45:32.500Z,1008.57
2023-03-18T11:46:32.510Z,1008.56
2023-03-18T11:47:32.454Z,1008.64
2023-03-18T11:48:32.458Z,1008.59
2023-03-18T11:49:32.466Z,1008.54
2023-03-18T11:50:32.650Z,1008.58
2023-03-18T11:51:32.413Z,1008.66
2023-03-18T11:52:32.403Z,1008.57
2023-03-18T11:53:32.392Z,1008.63
2023-03-18T11:54:32.382Z,1008.62
2023-03-18T11:55:32.724Z,1008.56
2023-03-18T11:56:32.363Z,1008.63
2023-03-18T11:57:32.386Z,1008.60
2023-03-18T11:58:32.343Z,1008.61
2023-03-18T11:59:32.335Z,1008.57
2023-03-18T12:00:32.360Z,1008.59
2023-03-18T12:01:32.972Z,1008.53
2023-03-18T12:02:32.308Z,1008.53
2023-03-18T12:03:32.308Z,1008.59
2023-03-18T12:04:32.307Z,1008.56
2023-03-18T12:05:32.662Z,1008.53